sensor_id;sensor_type;location;lat;lon;timestamp;pressure;altitude;pressure_sealevel;temperature;humidity
62703;BME280;66022;50.448;18.122;2023-01-15T00:06:29;98594.58;;;6.58;72.78
62703;BME280;66022;50.448;18.122;2023-01-15T00:10:43;98587.97;;;6.58;72.85
62703;BME280;66022;50.448;18.122;2023-01-15T00:14:57;98584.06;;;6.58;72.89
62703;BME280;66022;50.448;18.122;2023-01-15T00:19:11;98577.77;;;6.60;73.01
62703;BME280;66022;50.448;18.122;2023-01-15T00:23:25;98572.49;;;6.60;72.96
62703;BME280;66022;50.448;18.122;2023-01-15T00:27:39;98567.13;;;6.63;72.86
62703;BME280;66022;50.448;18.122;2023-01-15T00:31:56;98559.64;;;6.64;73.08
62703;BME280;66022;50.448;18.122;2023-01-15T00:36:07;98552.45;;;6.66;73.19
62703;BME280;66022;50.448;18.122;2023-01-15T00:40:21;98545.86;;;6.67;73.59
62703;BME280;66022;50.448;18.122;2023-01-15T00:44:35;98538.79;;;6.65;73.74
62703;BME280;66022;50.448;18.122;2023-01-15T00:48:49;98532.86;;;6.65;73.90
62703;BME280;66022;50.448;18.122;2023-01-15T00:53:03;98525.64;;;6.63;74.57
62703;BME280;66022;50.448;18.122;2023-01-15T00:57:17;98518.28;;;6.63;74.13
62703;BME280;66022;50.448;18.122;2023-01-15T01:01:31;98512.61;;;6.63;74.44
62703;BME280;66022;50.448;18.122;2023-01-15T01:05:45;98506.11;;;6.63;74.50
62703;BME280;66022;50.448;18.122;2023-01-15T01:09:59;98499.02;;;6.62;74.70
62703;BME280;66022;50.448;18.122;2023-01-15T01:14:13;98491.64;;;6.60;75.11
62703;BME280;66022;50.448;18.122;2023-01-15T01:18:27;98484.12;;;6.59;75.04
62703;BME280;66022;50.448;18.122;2023-01-15T01:22:41;98475.62;;;6.54;75.58
62703;BME280;66022;50.448;18.122;2023-01-15T01:26:55;98467.89;;;6.54;75.01
62703;BME280;66022;50.448;18.122;2023-01-15T01:31:09;98461.99;;;6.52;75.27
62703;BME280;66022;50.448;18.122;2023-01-15T01:35:23;98453.99;;;6.51;75.17
62703;BME280;66022;50.448;18.122;2023-01-15T01:39:37;98443.91;;;6.50;75.09
62703;BME280;66022;50.448;18.122;2023-01-15T01:43:53;98436.10;;;6.49;75.17
62703;BME280;66022;50.448;18.122;2023-01-15T01:48:05;98430.57;;;6.50;74.90
62703;BME280;66022;50.448;18.122;2023-01-15T01:52:24;98424.40;;;6.49;74.68
62703;BME280;66022;50.448;18.122;2023-01-15T01:56:36;98416.75;;;6.51;74.18
62703;BME280;66022;50.448;18.122;2023-01-15T02:00:47;98410.64;;;6.54;74.07
62703;BME280;66022;50.448;18.122;2023-01-15T02:05:01;98405.49;;;6.57;73.17
62703;BME280;66022;50.448;18.122;2023-01-15T02:09:15;98399.59;;;6.62;73.12
62703;BME280;66022;50.448;18.122;2023-01-15T02:30:32;98381.71;;;6.92;71.62
62703;BME280;66022;50.448;18.122;2023-01-15T02:34:42;98379.11;;;6.96;71.97
62703;BME280;66022;50.448;18.122;2023-01-15T02:38:53;98375.56;;;7.02;71.83
62703;BME280;66022;50.448;18.122;2023-01-15T02:43:07;98370.31;;;7.05;71.53
62703;BME280;66022;50.448;18.122;2023-01-15T02:47:23;98363.78;;;7.09;71.52
62703;BME280;66022;50.448;18.122;2023-01-15T02:51:36;98358.20;;;7.12;72.08
62703;BME280;66022;50.448;18.122;2023-01-15T02:55:49;98352.39;;;7.15;71.83
62703;BME280;66022;50.448;18.122;2023-01-15T03:00:04;98345.56;;;7.17;72.43
62703;BME280;66022;50.448;18.122;2023-01-15T03:08:33;98337.35;;;7.19;72.63
62703;BME280;66022;50.448;18.122;2023-01-15T03:12:47;98333.63;;;7.17;72.98
62703;BME280;66022;50.448;18.122;2023-01-15T03:17:00;98330.58;;;7.18;73.39
62703;BME280;66022;50.448;18.122;2023-01-15T03:21:14;98326.74;;;7.18;73.94
62703;BME280;66022;50.448;18.122;2023-01-15T03:25:28;98325.31;;;7.18;74.24
62703;BME280;66022;50.448;18.122;2023-01-15T03:29:41;98322.55;;;7.19;74.49
62703;BME280;66022;50.448;18.122;2023-01-15T03:33:55;98320.67;;;7.20;74.75
62703;BME280;66022;50.448;18.122;2023-01-15T03:38:09;98318.89;;;7.23;74.77
62703;BME280;66022;50.448;18.122;2023-01-15T03:50:52;98312.25;;;7.30;75.13
62703;BME280;66022;50.448;18.122;2023-01-15T03:55:09;98309.90;;;7.31;75.55
62703;BME280;66022;50.448;18.122;2023-01-15T03:59:22;98306.87;;;7.32;76.37
62703;BME280;66022;50.448;18.122;2023-01-15T04:03:33;98305.06;;;7.30;78.09
62703;BME280;66022;50.448;18.122;2023-01-15T04:07:47;98304.21;;;7.28;78.41
62703;BME280;66022;50.448;18.122;2023-01-15T04:12:01;98305.08;;;7.23;79.10
62703;BME280;66022;50.448;18.122;2023-01-15T04:16:16;98306.02;;;7.19;79.44
62703;BME280;66022;50.448;18.122;2023-01-15T04:20:29;98306.45;;;7.15;79.35
62703;BME280;66022;50.448;18.122;2023-01-15T04:24:43;98307.23;;;7.10;79.50
62703;BME280;66022;50.448;18.122;2023-01-15T04:28:57;98307.12;;;7.08;79.70
62703;BME280;66022;50.448;18.122;2023-01-15T04:33:14;98302.19;;;7.04;80.39
62703;BME280;66022;50.448;18.122;2023-01-15T04:37:25;98295.43;;;7.04;79.32
62703;BME280;66022;50.448;18.122;2023-01-15T04:41:39;98289.65;;;7.04;79.78
62703;BME280;66022;50.448;18.122;2023-01-15T04:45:53;98283.89;;;7.04;80.21
62703;BME280;66022;50.448;18.122;2023-01-15T04:50:07;98278.20;;;7.01;80.64
62703;BME280;66022;50.448;18.122;2023-01-15T04:54:21;98272.65;;;6.96;80.74
62703;BME280;66022;50.448;18.122;2023-01-15T04:58:35;98268.48;;;6.92;80.13
62703;BME280;66022;50.448;18.122;2023-01-15T05:02:49;98265.96;;;6.86;80.94
62703;BME280;66022;50.448;18.122;2023-01-15T05:07:03;98263.19;;;6.83;79.67
62703;BME280;66022;50.448;18.122;2023-01-15T05:11:17;98258.44;;;6.79;79.29
62703;BME280;66022;50.448;18.122;2023-01-15T05:15:31;98254.89;;;6.77;79.38
62703;BME280;66022;50.448;18.122;2023-01-15T05:19:45;98252.45;;;6.74;79.47
62703;BME280;66022;50.448;18.122;2023-01-15T05:23:59;98249.03;;;6.70;79.54
62703;BME280;66022;50.448;18.122;2023-01-15T05:28:13;98245.40;;;6.68;79.29
62703;BME280;66022;50.448;18.122;2023-01-15T05:32:28;98242.99;;;6.65;81.22
62703;BME280;66022;50.448;18.122;2023-01-15T05:36:41;98238.90;;;6.64;80.77
62703;BME280;66022;50.448;18.122;2023-01-15T05:40:55;98236.74;;;6.61;82.41
62703;BME280;66022;50.448;18.122;2023-01-15T05:45:09;98235.64;;;6.57;81.94
62703;BME280;66022;50.448;18.122;2023-01-15T05:49:24;98234.73;;;6.54;81.15
62703;BME280;66022;50.448;18.122;2023-01-15T05:53:37;98233.39;;;6.50;81.55
62703;BME280;66022;50.448;18.122;2023-01-15T05:57:51;98232.11;;;6.48;81.66
62703;BME280;66022;50.448;18.122;2023-01-15T06:02:05;98230.92;;;6.44;81.68
62703;BME280;66022;50.448;18.122;2023-01-15T06:06:19;98229.63;;;6.42;80.92
62703;BME280;66022;50.448;18.122;2023-01-15T06:10:33;98225.93;;;6.39;80.21
62703;BME280;66022;50.448;18.122;2023-01-15T06:14:47;98224.83;;;6.37;80.09
62703;BME280;66022;50.448;18.122;2023-01-15T06:19:01;98223.18;;;6.36;80.40
62703;BME280;66022;50.448;18.122;2023-01-15T06:23:18;98221.95;;;6.34;81.24
62703;BME280;66022;50.448;18.122;2023-01-15T06:27:29;98219.87;;;6.34;79.04
62703;BME280;66022;50.448;18.122;2023-01-15T06:31:43;98220.59;;;6.33;79.73
62703;BME280;66022;50.448;18.122;2023-01-15T06:35:57;98221.49;;;6.33;79.73
62703;BME280;66022;50.448;18.122;2023-01-15T06:40:11;98224.73;;;6.33;78.97
62703;BME280;66022;50.448;18.122;2023-01-15T06:44:25;98228.77;;;6.32;79.13
62703;BME280;66022;50.448;18.122;2023-01-15T06:48:39;98231.27;;;6.33;78.81
62703;BME280;66022;50.448;18.122;2023-01-15T06:52:53;98229.29;;;6.31;79.46
62703;BME280;66022;50.448;18.122;2023-01-15T06:57:07;98227.76;;;6.32;79.34
62703;BME280;66022;50.448;18.122;2023-01-15T07:01:21;98227.45;;;6.31;78.84
62703;BME280;66022;50.448;18.122;2023-01-15T07:05:38;98227.87;;;6.30;79.10
62703;BME280;66022;50.448;18.122;2023-01-15T07:09:49;98227.89;;;6.30;78.71
62703;BME280;66022;50.448;18.122;2023-01-15T07:14:03;98228.16;;;6.29;78.49
62703;BME280;66022;50.448;18.122;2023-01-15T07:18:17;98228.58;;;6.29;78.20
62703;BME280;66022;50.448;18.122;2023-01-15T07:22:31;98227.81;;;6.27;77.89
62703;BME280;66022;50.448;18.122;2023-01-15T07:26:45;98226.12;;;6.27;77.39
62703;BME280;66022;50.448;18.122;2023-01-15T07:30:59;98225.55;;;6.27;76.76
62703;BME280;66022;50.448;18.122;2023-01-15T07:35:13;98225.98;;;6.26;76.43
62703;BME280;66022;50.448;18.122;2023-01-15T07:39:27;98227.08;;;6.26;75.93
62703;BME280;66022;50.448;18.122;2023-01-15T07:43:41;98227.17;;;6.24;76.42
62703;BME280;66022;50.448;18.122;2023-01-15T07:47:55;98223.69;;;6.24;76.02
62703;BME280;66022;50.448;18.122;2023-01-15T07:52:09;98219.50;;;6.21;76.65
62703;BME280;66022;50.448;18.122;2023-01-15T07:56:23;98216.58;;;6.21;76.19
62703;BME280;66022;50.448;18.122;2023-01-15T08:00:37;98213.70;;;6.19;76.95
62703;BME280;66022;50.448;18.122;2023-01-15T08:04:51;98209.94;;;6.16;76.98
62703;BME280;66022;50.448;18.122;2023-01-15T08:09:05;98206.70;;;6.15;77.78
62703;BME280;66022;50.448;18.122;2023-01-15T08:13:20;98202.08;;;6.12;79.25
62703;BME280;66022;50.448;18.122;2023-01-15T08:21:47;98194.75;;;6.11;79.14
62703;BME280;66022;50.448;18.122;2023-01-15T08:26:01;98195.17;;;6.11;79.37
62703;BME280;66022;50.448;18.122;2023-01-15T08:30:24;98194.39;;;6.09;79.35
62703;BME280;66022;50.448;18.122;2023-01-15T08:34:29;98195.86;;;6.03;81.68
62703;BME280;66022;50.448;18.122;2023-01-15T08:38:43;98194.51;;;5.99;81.33
62703;BME280;66022;50.448;18.122;2023-01-15T08:42:57;98192.30;;;5.92;82.62
62703;BME280;66022;50.448;18.122;2023-01-15T08:47:11;98189.64;;;5.88;81.30
62703;BME280;66022;50.448;18.122;2023-01-15T08:51:25;98187.98;;;5.84;81.78
62703;BME280;66022;50.448;18.122;2023-01-15T08:55:39;98183.56;;;5.79;81.54
62703;BME280;66022;50.448;18.122;2023-01-15T08:59:53;98180.30;;;5.75;81.42
62703;BME280;66022;50.448;18.122;2023-01-15T09:04:07;98178.70;;;5.72;81.27
62703;BME280;66022;50.448;18.122;2023-01-15T09:08:21;98176.75;;;5.70;82.15
62703;BME280;66022;50.448;18.122;2023-01-15T09:12:35;98172.09;;;5.65;83.05
62703;BME280;66022;50.448;18.122;2023-01-15T09:16:49;98166.85;;;5.65;81.25
62703;BME280;66022;50.448;18.122;2023-01-15T09:21:03;98163.95;;;5.64;81.62
62703;BME280;66022;50.448;18.122;2023-01-15T09:25:17;98162.31;;;5.62;82.05
62703;BME280;66022;50.448;18.122;2023-01-15T09:29:31;98161.47;;;5.62;81.63
62703;BME280;66022;50.448;18.122;2023-01-15T09:33:45;98160.08;;;5.62;82.73
62703;BME280;66022;50.448;18.122;2023-01-15T09:37:59;98158.23;;;5.62;81.91
62703;BME280;66022;50.448;18.122;2023-01-15T09:46:30;98154.66;;;5.62;81.92
62703;BME280;66022;50.448;18.122;2023-01-15T10:11:52;98131.03;;;5.77;80.15
62703;BME280;66022;50.448;18.122;2023-01-15T10:16:05;98126.44;;;5.80;80.19
62703;BME280;66022;50.448;18.122;2023-01-15T10:33:04;98107.67;;;5.93;79.62
62703;BME280;66022;50.448;18.122;2023-01-15T10:37:25;98103.83;;;5.98;78.43
62703;BME280;66022;50.448;18.122;2023-01-15T10:45:46;98090.83;;;6.02;78.69
62703;BME280;66022;50.448;18.122;2023-01-15T10:49:57;98085.17;;;6.04;79.12
62703;BME280;66022;50.448;18.122;2023-01-15T10:58:28;98072.31;;;6.05;79.18
62703;BME280;66022;50.448;18.122;2023-01-15T11:02:39;98065.65;;;6.05;81.07
62703;BME280;66022;50.448;18.122;2023-01-15T11:06:53;98057.90;;;6.08;78.89
62703;BME280;66022;50.448;18.122;2023-01-15T11:11:17;98050.87;;;6.09;79.02
62703;BME280;66022;50.448;18.122;2023-01-15T11:15:22;98045.19;;;6.10;78.53
62703;BME280;66022;50.448;18.122;2023-01-15T11:19:37;98039.23;;;6.12;78.62
62703;BME280;66022;50.448;18.122;2023-01-15T11:23:49;98034.04;;;6.13;79.29
62703;BME280;66022;50.448;18.122;2023-01-15T11:28:04;98027.58;;;6.15;78.72
62703;BME280;66022;50.448;18.122;2023-01-15T11:32:24;98020.34;;;6.13;79.70
62703;BME280;66022;50.448;18.122;2023-01-15T11:36:31;98014.49;;;6.14;78.72
62703;BME280;66022;50.448;18.122;2023-01-15T11:44:59;97996.91;;;6.14;79.02
62703;BME280;66022;50.448;18.122;2023-01-15T11:49:18;97988.93;;;6.15;78.74
62703;BME280;66022;50.448;18.122;2023-01-15T11:53:27;97979.77;;;6.16;79.64
62703;BME280;66022;50.448;18.122;2023-01-15T11:57:41;97971.42;;;6.19;78.67
62703;BME280;66022;50.448;18.122;2023-01-15T12:01:56;97964.51;;;6.22;78.93
62703;BME280;66022;50.448;18.122;2023-01-15T12:06:12;97957.14;;;6.26;78.53
62703;BME280;66022;50.448;18.122;2023-01-15T12:44:15;97929.89;;;6.41;79.99
62703;BME280;66022;50.448;18.122;2023-01-15T12:48:32;97933.70;;;6.41;79.63
62703;BME280;66022;50.448;18.122;2023-01-15T12:56:58;97940.41;;;6.41;79.64
62703;BME280;66022;50.448;18.122;2023-01-15T13:01:16;97944.14;;;6.42;79.98
62703;BME280;66022;50.448;18.122;2023-01-15T13:09:43;97945.83;;;6.43;79.56
62703;BME280;66022;50.448;18.122;2023-01-15T13:13:53;97948.00;;;6.43;79.92
62703;BME280;66022;50.448;18.122;2023-01-15T13:18:13;97948.38;;;6.45;79.63
62703;BME280;66022;50.448;18.122;2023-01-15T13:22:22;97946.31;;;6.45;80.30
62703;BME280;66022;50.448;18.122;2023-01-15T13:30:55;97946.30;;;6.45;79.79
62703;BME280;66022;50.448;18.122;2023-01-15T13:35:21;97945.59;;;6.43;80.27
62703;BME280;66022;50.448;18.122;2023-01-15T13:39:21;97944.70;;;6.42;80.11
62703;BME280;66022;50.448;18.122;2023-01-15T13:47:46;97946.53;;;6.40;80.11
62703;BME280;66022;50.448;18.122;2023-01-15T13:51:59;97949.64;;;6.39;80.28
62703;BME280;66022;50.448;18.122;2023-01-15T13:56:18;97954.00;;;6.38;79.99
62703;BME280;66022;50.448;18.122;2023-01-15T14:00:33;97957.93;;;6.38;80.15
62703;BME280;66022;50.448;18.122;2023-01-15T14:04:41;97960.58;;;6.35;80.85
62703;BME280;66022;50.448;18.122;2023-01-15T14:08:55;97963.40;;;6.35;80.44
62703;BME280;66022;50.448;18.122;2023-01-15T14:17:30;97965.92;;;6.32;80.81
62703;BME280;66022;50.448;18.122;2023-01-15T14:21:39;97967.19;;;6.31;80.98
62703;BME280;66022;50.448;18.122;2023-01-15T14:38:33;97982.61;;;6.28;80.80
62703;BME280;66022;50.448;18.122;2023-01-15T14:42:47;97988.53;;;6.26;82.58
62703;BME280;66022;50.448;18.122;2023-01-15T14:47:02;97994.48;;;6.27;81.11
62703;BME280;66022;50.448;18.122;2023-01-15T14:51:21;98003.26;;;6.26;80.99
62703;BME280;66022;50.448;18.122;2023-01-15T14:55:29;98009.96;;;6.25;81.28
62703;BME280;66022;50.448;18.122;2023-01-15T15:04:03;98018.95;;;6.22;81.81
62703;BME280;66022;50.448;18.122;2023-01-15T15:08:12;98020.14;;;6.22;81.60
62703;BME280;66022;50.448;18.122;2023-01-15T15:16:43;98024.55;;;6.19;82.97
62703;BME280;66022;50.448;18.122;2023-01-15T15:25:07;98026.45;;;6.15;84.79
62703;BME280;66022;50.448;18.122;2023-01-15T15:29:21;98028.89;;;6.12;85.58
62703;BME280;66022;50.448;18.122;2023-01-15T15:33:36;98032.92;;;6.07;87.03
62703;BME280;66022;50.448;18.122;2023-01-15T15:37:49;98037.41;;;6.04;86.59
62703;BME280;66022;50.448;18.122;2023-01-15T15:42:03;98043.94;;;6.00;86.15
62703;BME280;66022;50.448;18.122;2023-01-15T15:50:32;98059.52;;;5.96;85.67
62703;BME280;66022;50.448;18.122;2023-01-15T15:54:55;98067.78;;;5.94;86.55
62703;BME280;66022;50.448;18.122;2023-01-15T15:58:59;98078.14;;;5.95;86.20
62703;BME280;66022;50.448;18.122;2023-01-15T16:03:24;98088.34;;;5.92;88.46
62703;BME280;66022;50.448;18.122;2023-01-15T16:07:28;98102.37;;;5.91;87.40
62703;BME280;66022;50.448;18.122;2023-01-15T16:11:41;98116.28;;;5.88;87.09
62703;BME280;66022;50.448;18.122;2023-01-15T16:15:56;98130.08;;;5.85;87.71
62703;BME280;66022;50.448;18.122;2023-01-15T16:20:15;98143.41;;;5.82;87.85
62703;BME280;66022;50.448;18.122;2023-01-15T16:24:26;98156.60;;;5.77;88.67
62703;BME280;66022;50.448;18.122;2023-01-15T16:28:42;98169.23;;;5.74;87.58
62703;BME280;66022;50.448;18.122;2023-01-15T16:32:51;98180.59;;;5.69;91.49
62703;BME280;66022;50.448;18.122;2023-01-15T16:37:14;98190.16;;;5.67;87.67
62703;BME280;66022;50.448;18.122;2023-01-15T16:45:33;98207.33;;;5.61;88.74
62703;BME280;66022;50.448;18.122;2023-01-15T16:49:47;98214.45;;;5.60;87.92
62703;BME280;66022;50.448;18.122;2023-01-15T16:54:02;98217.91;;;5.58;88.90
62703;BME280;66022;50.448;18.122;2023-01-15T16:58:16;98218.89;;;5.57;88.81
62703;BME280;66022;50.448;18.122;2023-01-15T17:02:33;98220.89;;;5.54;91.92
62703;BME280;66022;50.448;18.122;2023-01-15T17:06:43;98222.71;;;5.54;88.36
62703;BME280;66022;50.448;18.122;2023-01-15T17:10:58;98224.59;;;5.56;88.72
62703;BME280;66022;50.448;18.122;2023-01-15T17:19:25;98232.81;;;5.58;88.46
62703;BME280;66022;50.448;18.122;2023-01-15T17:23:39;98238.81;;;5.57;90.53
62703;BME280;66022;50.448;18.122;2023-01-15T17:27:53;98247.05;;;5.57;88.66
62703;BME280;66022;50.448;18.122;2023-01-15T17:32:10;98253.57;;;5.57;89.48
62703;BME280;66022;50.448;18.122;2023-01-15T17:36:21;98258.07;;;5.57;88.52
62703;BME280;66022;50.448;18.122;2023-01-15T17:40:38;98263.81;;;5.57;88.58
62703;BME280;66022;50.448;18.122;2023-01-15T17:44:49;98266.05;;;5.54;89.18
62703;BME280;66022;50.448;18.122;2023-01-15T17:49:03;98267.42;;;5.55;87.72
62703;BME280;66022;50.448;18.122;2023-01-15T17:53:17;98267.42;;;5.55;88.96
62703;BME280;66022;50.448;18.122;2023-01-15T17:57:31;98267.25;;;5.56;87.24
62703;BME280;66022;50.448;18.122;2023-01-15T18:01:45;98270.28;;;5.55;86.86
62703;BME280;66022;50.448;18.122;2023-01-15T18:05:59;98272.83;;;5.52;86.84
62703;BME280;66022;50.448;18.122;2023-01-15T18:10:13;98275.13;;;5.49;86.07
62703;BME280;66022;50.448;18.122;2023-01-15T18:14:27;98276.97;;;5.43;86.51
62703;BME280;66022;50.448;18.122;2023-01-15T18:18:41;98279.03;;;5.41;85.78
62703;BME280;66022;50.448;18.122;2023-01-15T18:22:55;98280.53;;;5.35;87.78
62703;BME280;66022;50.448;18.122;2023-01-15T18:27:09;98280.91;;;5.32;85.74
62703;BME280;66022;50.448;18.122;2023-01-15T18:31:23;98282.00;;;5.28;85.99
62703;BME280;66022;50.448;18.122;2023-01-15T18:35:37;98286.05;;;5.23;86.16
62703;BME280;66022;50.448;18.122;2023-01-15T18:39:51;98288.87;;;5.19;85.96
62703;BME280;66022;50.448;18.122;2023-01-15T18:44:06;98291.69;;;5.15;86.71
62703;BME280;66022;50.448;18.122;2023-01-15T18:48:19;98294.39;;;5.13;86.49
62703;BME280;66022;50.448;18.122;2023-01-15T18:52:33;98296.88;;;5.08;88.30
62703;BME280;66022;50.448;18.122;2023-01-15T18:56:47;98297.99;;;5.07;86.19
62703;BME280;66022;50.448;18.122;2023-01-15T19:05:15;98299.34;;;5.04;86.93
62703;BME280;66022;50.448;18.122;2023-01-15T19:09:29;98300.37;;;5.04;86.08
62703;BME280;66022;50.448;18.122;2023-01-15T19:13:43;98299.31;;;5.02;86.82
62703;BME280;66022;50.448;18.122;2023-01-15T19:18:00;98299.33;;;5.01;86.48
62703;BME280;66022;50.448;18.122;2023-01-15T19:22:11;98299.19;;;4.99;86.98
62703;BME280;66022;50.448;18.122;2023-01-15T19:26:25;98301.08;;;4.99;86.19
62703;BME280;66022;50.448;18.122;2023-01-15T19:30:40;98303.41;;;4.99;85.95
62703;BME280;66022;50.448;18.122;2023-01-15T19:34:55;98306.41;;;4.99;85.96
62703;BME280;66022;50.448;18.122;2023-01-15T19:39:08;98307.86;;;5.03;85.01
62703;BME280;66022;50.448;18.122;2023-01-15T19:43:21;98308.47;;;5.06;85.79
62703;BME280;66022;50.448;18.122;2023-01-15T19:47:35;98310.31;;;5.12;84.61
62703;BME280;66022;50.448;18.122;2023-01-15T19:51:49;98313.18;;;5.15;85.32
62703;BME280;66022;50.448;18.122;2023-01-15T19:56:03;98317.39;;;5.17;85.24
62703;BME280;66022;50.448;18.122;2023-01-15T20:00:17;98320.79;;;5.17;85.76
62703;BME280;66022;50.448;18.122;2023-01-15T20:04:31;98324.67;;;5.14;86.70
62703;BME280;66022;50.448;18.122;2023-01-15T20:08:45;98327.19;;;5.13;85.96
62703;BME280;66022;50.448;18.122;2023-01-15T20:12:59;98325.72;;;5.10;88.29
62703;BME280;66022;50.448;18.122;2023-01-15T20:17:13;98325.73;;;5.10;85.88
62703;BME280;66022;50.448;18.122;2023-01-15T20:21:27;98325.60;;;5.09;86.32
62703;BME280;66022;50.448;18.122;2023-01-15T20:25:41;98326.70;;;5.08;86.63
62703;BME280;66022;50.448;18.122;2023-01-15T20:29:55;98327.78;;;5.07;85.95
62703;BME280;66022;50.448;18.122;2023-01-15T20:34:09;98327.80;;;5.07;86.61
62703;BME280;66022;50.448;18.122;2023-01-15T20:38:23;98328.09;;;5.08;85.52
62703;BME280;66022;50.448;18.122;2023-01-15T20:42:38;98328.05;;;5.06;88.37
62703;BME280;66022;50.448;18.122;2023-01-15T20:46:51;98325.20;;;5.06;85.75
62703;BME280;66022;50.448;18.122;2023-01-15T20:55:19;98321.03;;;5.02;86.18
62703;BME280;66022;50.448;18.122;2023-01-15T20:59:33;98320.22;;;5.02;85.76
62703;BME280;66022;50.448;18.122;2023-01-15T21:03:47;98320.29;;;5.01;86.81
62703;BME280;66022;50.448;18.122;2023-01-15T21:08:01;98322.47;;;5.01;86.65
62703;BME280;66022;50.448;18.122;2023-01-15T21:12:15;98324.90;;;4.94;88.53
62703;BME280;66022;50.448;18.122;2023-01-15T21:16:29;98327.33;;;4.88;87.91
62703;BME280;66022;50.448;18.122;2023-01-15T21:20:43;98327.72;;;4.82;87.31
62703;BME280;66022;50.448;18.122;2023-01-15T21:24:57;98328.32;;;4.77;87.53
62703;BME280;66022;50.448;18.122;2023-01-15T21:29:11;98329.00;;;4.75;86.79
62703;BME280;66022;50.448;18.122;2023-01-15T21:33:25;98329.36;;;4.72;88.54
62703;BME280;66022;50.448;18.122;2023-01-15T21:37:39;98330.80;;;4.70;87.00
62703;BME280;66022;50.448;18.122;2023-01-15T21:41:53;98330.84;;;4.68;86.79
62703;BME280;66022;50.448;18.122;2023-01-15T21:46:07;98328.19;;;4.67;86.88
62703;BME280;66022;50.448;18.122;2023-01-15T21:50:21;98328.28;;;4.66;86.92
62703;BME280;66022;50.448;18.122;2023-01-15T21:54:35;98328.80;;;4.64;87.80
62703;BME280;66022;50.448;18.122;2023-01-15T21:58:49;98329.10;;;4.67;86.50
62703;BME280;66022;50.448;18.122;2023-01-15T22:03:03;98329.44;;;4.67;88.79
62703;BME280;66022;50.448;18.122;2023-01-15T22:07:17;98327.58;;;4.70;86.22
62703;BME280;66022;50.448;18.122;2023-01-15T22:11:31;98330.14;;;4.70;86.54
62703;BME280;66022;50.448;18.122;2023-01-15T22:15:51;98332.06;;;4.71;86.54
62703;BME280;66022;50.448;18.122;2023-01-15T22:19:59;98334.33;;;4.69;86.61
62703;BME280;66022;50.448;18.122;2023-01-15T22:24:13;98335.82;;;4.64;87.20
62703;BME280;66022;50.448;18.122;2023-01-15T22:28:27;98336.78;;;4.59;86.40
62703;BME280;66022;50.448;18.122;2023-01-15T22:32:41;98338.21;;;4.52;86.66
62703;BME280;66022;50.448;18.122;2023-01-15T22:36:55;98339.70;;;4.52;85.46
62703;BME280;66022;50.448;18.122;2023-01-15T22:41:09;98340.30;;;4.51;84.60
62703;BME280;66022;50.448;18.122;2023-01-15T22:45:23;98338.79;;;4.50;85.38
62703;BME280;66022;50.448;18.122;2023-01-15T22:49:37;98335.99;;;4.51;85.42
62703;BME280;66022;50.448;18.122;2023-01-15T22:53:52;98332.23;;;4.50;86.46
62703;BME280;66022;50.448;18.122;2023-01-15T22:58:05;98327.98;;;4.50;84.83
62703;BME280;66022;50.448;18.122;2023-01-15T23:02:19;98323.13;;;4.47;86.73
62703;BME280;66022;50.448;18.122;2023-01-15T23:06:33;98318.80;;;4.47;84.60
62703;BME280;66022;50.448;18.122;2023-01-15T23:10:47;98313.81;;;4.47;82.85
62703;BME280;66022;50.448;18.122;2023-01-15T23:15:01;98309.85;;;4.45;82.44
62703;BME280;66022;50.448;18.122;2023-01-15T23:19:16;98306.36;;;4.45;82.21
62703;BME280;66022;50.448;18.122;2023-01-15T23:23:32;98303.05;;;4.44;82.34
62703;BME280;66022;50.448;18.122;2023-01-15T23:27:43;98302.12;;;4.45;81.63
62703;BME280;66022;50.448;18.122;2023-01-15T23:31:57;98301.29;;;4.45;82.05
62703;BME280;66022;50.448;18.122;2023-01-15T23:36:11;98299.96;;;4.43;83.11
62703;BME280;66022;50.448;18.122;2023-01-15T23:40:25;98299.52;;;4.40;83.25
62703;BME280;66022;50.448;18.122;2023-01-15T23:44:39;98299.42;;;4.34;82.79
62703;BME280;66022;50.448;18.122;2023-01-15T23:48:53;98299.05;;;4.32;82.76
62703;BME280;66022;50.448;18.122;2023-01-15T23:53:07;98295.85;;;4.26;85.07
62703;BME280;66022;50.448;18.122;2023-01-15T23:57:21;98292.17;;;4.22;83.09
